Time;durP1;ratioP1;P1;durP2;ratioP2;P2;SDS_P1;SDS_P2;PMS_P1;PMS_P2;Temp;Humidity;BMP_temperature;BMP_pressure;BME280_temperature;BME280_humidity;BME280_pressure;Samples;Min_cycle;Max_cycle;Signal;HPM_P1;HPM_P2
2024/01/21 00:01:17;;;;;;;12.80;6.88;;;;;;;8.73;78.51;102747.03;5089554;28;20039;-86
2024/01/21 00:03:43;;;;;;;12.30;7.38;;;;;;;8.62;78.62;102728.59;5089397;28;20567;-87
2024/01/21 00:06:08;;;;;;;11.57;7.00;;;;;;;8.78;78.38;102763.09;5088903;28;20040;-86
2024/01/21 00:08:34;;;;;;;11.93;7.00;;;;;;;8.78;79.19;102765.69;5089293;28;20051;-87
2024/01/21 00:11:00;;;;;;;13.57;7.60;;;;;;;8.91;79.08;102789.53;5089282;28;20459;-87
2024/01/21 00:13:26;;;;;;;12.23;7.63;;;;;;;8.82;79.03;102786.06;5089891;28;20066;-88
2024/01/21 00:15:51;;;;;;;11.25;7.00;;;;;;;9.05;78.82;102818.56;5088682;28;20035;-86
2024/01/21 00:18:17;;;;;;;12.80;7.43;;;;;;;8.71;78.85;102782.44;5079304;28;20031;-86
2024/01/21 00:20:43;;;;;;;11.13;6.85;;;;;;;8.69;79.06;102772.66;5083762;28;20028;-86
2024/01/21 00:23:09;;;;;;;12.75;7.28;;;;;;;8.84;79.19;102804.44;5087287;28;20067;-86
2024/01/21 00:25:35;;;;;;;11.25;6.68;;;;;;;8.76;78.89;102789.03;5082866;28;20041;-87
2024/01/21 00:28:02;;;;;;;11.40;6.80;;;;;;;8.43;78.86;102726.88;5086665;28;20035;-87
2024/01/21 00:30:27;;;;;;;11.15;6.90;;;;;;;8.82;78.53;102806.91;5088895;28;20027;-87
2024/01/21 00:32:53;;;;;;;14.00;7.20;;;;;;;8.94;78.78;102828.00;5088292;28;20031;-86
2024/01/21 00:35:18;;;;;;;12.90;7.20;;;;;;;8.81;78.50;102802.47;5088706;28;20551;-86
2024/01/21 00:37:44;;;;;;;11.73;7.20;;;;;;;8.64;78.67;102767.03;5089001;28;20024;-85
2024/01/21 00:40:10;;;;;;;10.95;6.80;;;;;;;8.41;78.27;102728.41;5088152;28;20042;-86
2024/01/21 00:42:36;;;;;;;11.48;6.72;;;;;;;8.96;78.42;102823.84;5087639;28;20031;-86
2024/01/21 00:45:02;;;;;;;;;;;;;;;8.92;78.30;102816.50;5081427;28;20036;-86
2024/01/21 00:47:28;;;;;;;9.68;6.22;;;;;;;8.25;78.26;102699.97;5088394;28;19916;-86
2024/01/21 00:49:54;;;;;;;11.77;7.10;;;;;;;8.87;78.43;102807.31;5087571;28;20031;-85
2024/01/21 00:52:19;;;;;;;10.90;6.88;;;;;;;8.71;78.30;102777.25;5069076;28;20455;-87
2024/01/21 00:54:45;;;;;;;10.70;6.88;;;;;;;8.70;78.07;102780.63;5085343;28;20051;-86
2024/01/21 00:57:11;;;;;;;11.85;7.35;;;;;;;8.76;78.22;102798.50;5085861;28;20040;-86
2024/01/21 00:59:36;;;;;;;11.95;7.28;;;;;;;8.47;78.82;102762.84;5090522;28;20115;-87
2024/01/21 01:02:02;;;;;;;12.32;6.60;;;;;;;8.51;78.49;102757.16;5087856;28;20028;-86
2024/01/21 01:04:28;;;;;;;11.93;7.13;;;;;;;8.69;78.65;102785.69;5090000;28;20035;-87
2024/01/21 01:06:53;;;;;;;10.98;6.80;;;;;;;8.69;78.77;102786.59;5089015;28;20024;-87
2024/01/21 01:09:19;;;;;;;12.65;7.38;;;;;;;8.71;78.42;102781.53;5088176;28;20028;-86
2024/01/21 01:11:45;;;;;;;10.45;6.55;;;;;;;8.63;78.74;102782.50;5088635;28;20119;-86
2024/01/21 01:14:10;;;;;;;10.70;6.60;;;;;;;8.67;78.59;102795.03;5087498;28;20036;-86
2024/01/21 01:16:39;;;;;;;11.85;6.88;;;;;;;8.85;78.27;102827.13;5088306;28;20039;-84
2024/01/21 01:19:06;;;;;;;10.75;6.72;;;;;;;8.83;78.48;102823.47;5088127;28;20055;-86
2024/01/21 01:21:32;;;;;;;9.75;6.38;;;;;;;8.58;78.44;102775.97;5085802;28;20028;-88
2024/01/21 01:23:57;;;;;;;11.32;6.85;;;;;;;8.64;78.49;102786.97;5086155;28;20090;-88
2024/01/21 01:26:23;;;;;;;12.27;6.70;;;;;;;8.71;78.21;102802.38;5083869;28;20032;-88
2024/01/21 01:28:50;;;;;;;9.60;6.22;;;;;;;8.59;78.39;102780.38;5088948;28;20039;-88
2024/01/21 01:31:21;;;;;;;9.95;6.38;;;;;;;8.74;78.25;102806.19;5088407;28;20313;-88
2024/01/21 01:33:48;;;;;;;9.73;6.50;;;;;;;8.60;78.12;102790.03;5084606;28;20043;-88
2024/01/21 01:36:14;;;;;;;10.52;6.20;;;;;;;8.58;78.46;102794.19;5068749;28;20456;-88
2024/01/21 01:38:39;;;;;;;9.48;6.05;;;;;;;8.35;77.96;102753.81;5077092;28;20032;-87
2024/01/21 01:41:05;;;;;;;9.82;6.18;;;;;;;8.21;78.25;102747.28;5086341;28;20217;-88
2024/01/21 01:43:31;;;;;;;10.60;6.28;;;;;;;8.62;78.29;102820.66;5088871;28;20032;-88
2024/01/21 01:46:00;;;;;;;;;;;;;;;8.73;78.38;102843.44;5106878;28;20038;-88
2024/01/21 01:48:27;;;;;;;9.65;5.97;;;;;;;8.72;78.41;102853.69;5091044;28;19924;-87
2024/01/21 01:50:53;;;;;;;8.63;5.95;;;;;;;8.39;78.57;102799.31;5090344;28;20020;-87
2024/01/21 01:53:19;;;;;;;9.45;5.90;;;;;;;8.37;78.61;102806.97;5090741;28;20039;-88
2024/01/21 01:55:45;;;;;;;8.77;6.10;;;;;;;8.28;78.48;102793.97;5089221;28;20032;-87
2024/01/21 01:58:12;;;;;;;9.60;5.70;;;;;;;8.47;78.86;102840.06;5088879;28;20494;-86
2024/01/21 02:00:37;;;;;;;10.38;6.40;;;;;;;8.23;78.48;102800.41;5090555;28;20145;-86
2024/01/21 02:03:04;;;;;;;10.35;6.32;;;;;;;8.10;78.61;102781.78;5074003;28;20134;-86
2024/01/21 02:05:29;;;;;;;;;;;;;;;8.68;78.31;102886.38;5088289;28;20107;-87
2024/01/21 02:07:55;;;;;;;9.27;5.68;;;;;;;8.31;78.56;102817.69;5104615;28;20536;-88
2024/01/21 02:10:21;;;;;;;10.15;5.90;;;;;;;8.32;78.40;102827.34;5090188;28;20036;-87
2024/01/21 02:12:47;;;;;;;9.48;5.68;;;;;;;8.43;78.48;102849.25;5093391;28;20028;-87
2024/01/21 02:15:13;;;;;;;11.93;6.20;;;;;;;8.14;78.00;102805.66;5088722;28;20024;-86
2024/01/21 02:17:39;;;;;;;8.90;5.90;;;;;;;8.49;78.18;102873.28;5086641;28;20111;-86
2024/01/21 02:20:07;;;;;;;8.70;5.88;;;;;;;8.33;78.04;102843.88;5086766;28;20032;-85
2024/01/21 02:22:34;;;;;;;8.52;5.70;;;;;;;8.20;78.20;102820.97;5091798;28;20043;-86
2024/01/21 02:25:00;;;;;;;9.77;6.22;;;;;;;8.41;78.04;102863.81;5089376;28;20036;-86
2024/01/21 02:27:26;;;;;;;9.00;6.30;;;;;;;8.52;78.28;102872.63;5090595;28;20101;-87
2024/01/21 02:29:52;;;;;;;10.23;6.10;;;;;;;8.54;78.21;102890.25;5086351;28;20056;-86
2024/01/21 02:32:18;;;;;;;9.60;5.90;;;;;;;8.40;78.07;102871.41;5086289;28;20063;-85
2024/01/21 02:34:44;;;;;;;8.65;5.85;;;;;;;8.38;78.40;102878.16;5086584;28;20135;-87
2024/01/21 02:37:09;;;;;;;10.88;6.13;;;;;;;8.17;78.42;102825.88;5093090;28;20027;-87
2024/01/21 02:39:35;;;;;;;10.40;6.22;;;;;;;8.11;78.58;102822.69;5068863;28;20043;-86
2024/01/21 02:42:01;;;;;;;9.70;5.45;;;;;;;8.24;78.21;102843.91;5084253;28;20030;-87
2024/01/21 02:44:26;;;;;;;9.38;5.75;;;;;;;8.10;78.47;102824.34;5090007;28;20062;-88
2024/01/21 02:46:52;;;;;;;8.52;5.60;;;;;;;8.51;78.82;102899.47;5082679;28;20070;-88
2024/01/21 02:49:17;;;;;;;9.73;6.10;;;;;;;8.42;78.31;102893.34;5087593;28;20042;-86
2024/01/21 02:51:43;;;;;;;10.63;5.97;;;;;;;8.30;78.60;102874.84;5086536;28;20117;-87
2024/01/21 02:54:09;;;;;;;10.00;5.88;;;;;;;8.06;78.14;102829.09;5090337;28;20036;-87
2024/01/21 02:56:34;;;;;;;8.77;5.57;;;;;;;8.18;78.40;102858.03;5091646;28;20090;-86
2024/01/21 02:59:00;;;;;;;9.57;6.00;;;;;;;8.34;78.04;102883.09;5091757;28;20044;-87
2024/01/21 03:01:26;;;;;;;8.85;5.60;;;;;;;7.80;78.14;102783.25;5091270;28;20068;-86
2024/01/21 03:03:51;;;;;;;9.40;6.07;;;;;;;8.35;78.36;102900.53;5089628;28;20039;-87
2024/01/21 03:06:18;;;;;;;9.40;6.07;;;;;;;8.45;78.21;102917.09;5089976;28;20030;-88
2024/01/21 03:08:44;;;;;;;9.57;5.63;;;;;;;8.36;77.94;102899.78;5089083;28;20039;-89
2024/01/21 03:11:09;;;;;;;9.02;6.07;;;;;;;8.08;78.03;102849.28;5083228;28;20035;-87
2024/01/21 03:13:35;;;;;;;9.10;5.72;;;;;;;8.19;77.73;102867.66;5090553;28;20032;-87
2024/01/21 03:16:01;;;;;;;9.20;5.97;;;;;;;8.04;77.95;102841.97;5091855;28;20082;-86
2024/01/21 03:18:26;;;;;;;9.45;5.68;;;;;;;8.26;78.21;102889.22;5090280;28;20040;-86
2024/01/21 03:20:52;;;;;;;8.63;5.68;;;;;;;8.07;77.92;102863.09;5097470;28;20032;-86
2024/01/21 03:23:18;;;;;;;10.70;5.82;;;;;;;7.88;77.94;102823.94;5082449;28;20032;-87
2024/01/21 03:25:45;;;;;;;9.18;5.65;;;;;;;7.92;78.20;102843.38;5077725;28;20041;-86
2024/01/21 03:28:10;;;;;;;10.23;6.22;;;;;;;8.01;77.88;102857.28;5087616;28;20032;-86
2024/01/21 03:30:39;;;;;;;9.18;5.55;;;;;;;8.29;78.31;102904.22;5101870;28;20512;-87
2024/01/21 03:33:04;;;;;;;10.43;6.05;;;;;;;7.84;78.10;102834.81;5090299;28;20043;-87
2024/01/21 03:35:30;;;;;;;10.10;6.70;;;;;;;8.02;78.29;102866.94;5088501;28;20481;-87
2024/01/21 03:37:56;;;;;;;10.43;5.93;;;;;;;7.96;78.17;102863.75;5082711;28;20044;-86
2024/01/21 03:40:21;;;;;;;9.20;5.70;;;;;;;7.86;78.09;102850.59;5089352;28;20028;-87
2024/01/21 03:42:47;;;;;;;8.77;5.68;;;;;;;8.32;78.19;102941.91;5074160;28;20051;-87
2024/01/21 03:45:13;;;;;;;10.50;6.57;;;;;;;8.32;78.03;102946.19;5083728;28;20024;-86
2024/01/21 03:47:39;;;;;;;8.85;5.45;;;;;;;8.19;77.88;102922.31;5089229;28;20036;-87
2024/01/21 03:50:05;;;;;;;10.57;5.60;;;;;;;7.98;77.69;102889.88;5089560;28;20116;-87
2024/01/21 03:52:31;;;;;;;;;;;;;;;8.31;77.86;102952.16;5082438;28;20028;-86
2024/01/21 03:54:57;;;;;;;9.93;5.47;;;;;;;7.69;77.76;102841.13;5088997;28;20385;-87
2024/01/21 03:57:22;;;;;;;8.55;5.53;;;;;;;7.79;77.77;102872.50;5085117;28;20040;-87
2024/01/21 03:59:48;;;;;;;9.93;5.72;;;;;;;8.14;78.18;102943.59;5071710;28;20032;-86
2024/01/21 04:02:15;;;;;;;8.10;5.57;;;;;;;8.20;77.76;102947.59;5089332;28;20047;-87
2024/01/21 04:04:44;;;;;;;9.35;5.60;;;;;;;8.23;77.49;102961.78;5088889;28;20039;-87
2024/01/21 04:07:10;;;;;;;8.93;5.68;;;;;;;8.02;77.75;102918.03;5089138;28;20024;-88
2024/01/21 04:09:35;;;;;;;7.57;5.22;;;;;;;8.23;77.64;102954.00;5090833;28;20028;-88
2024/01/21 04:12:01;;;;;;;9.45;5.43;;;;;;;8.04;77.69;102925.22;5090385;28;20060;-88
2024/01/21 04:14:27;;;;;;;8.55;5.75;;;;;;;8.10;77.73;102945.75;5087600;28;20023;-87
2024/01/21 04:16:52;;;;;;;8.90;5.35;;;;;;;7.77;77.69;102881.81;5088042;28;20039;-87
2024/01/21 04:19:19;;;;;;;8.85;5.70;;;;;;;7.72;78.05;102875.22;5089720;28;20077;-87
2024/01/21 04:21:45;;;;;;;7.72;5.55;;;;;;;8.00;78.33;102923.13;5090203;28;20034;-86
2024/01/21 04:24:10;;;;;;;8.68;5.63;;;;;;;8.21;77.86;102965.94;5074798;28;20112;-87
2024/01/21 04:26:36;;;;;;;7.85;5.47;;;;;;;7.97;77.91;102920.19;5103575;28;20059;-88
2024/01/21 04:29:02;;;;;;;8.98;5.32;;;;;;;7.94;77.84;102918.22;5087649;28;20020;-86
2024/01/21 04:31:27;;;;;;;9.88;6.20;;;;;;;7.95;77.77;102919.13;5088489;28;20028;-87
2024/01/21 04:33:53;;;;;;;9.65;5.90;;;;;;;7.77;77.87;102893.88;5085784;28;20082;-88
2024/01/21 04:36:19;;;;;;;8.18;5.38;;;;;;;7.81;77.59;102901.22;5088093;28;20024;-88
2024/01/21 04:38:45;;;;;;;9.02;5.57;;;;;;;8.13;77.68;102967.81;5087816;28;20055;-89
2024/01/21 04:41:14;;;;;;;;;;;;;;;8.13;77.78;102961.69;5081380;28;20028;-88
2024/01/21 04:43:41;;;;;;;7.95;5.05;;;;;;;8.01;77.79;102947.44;5089622;28;19981;-86
2024/01/21 04:46:06;;;;;;;8.43;5.57;;;;;;;7.87;77.76;102934.00;5088287;28;20036;-85
2024/01/21 04:48:33;;;;;;;8.00;5.57;;;;;;;8.08;77.65;102968.09;5086831;28;20104;-85
2024/01/21 04:50:58;;;;;;;;;;;;;;;8.03;77.69;102967.66;5079526;28;20547;-86
2024/01/21 04:53:24;;;;;;;8.90;5.13;;;;;;;7.49;77.68;102878.13;5063005;28;19912;-86
2024/01/21 04:55:50;;;;;;;10.07;5.72;;;;;;;7.59;77.45;102904.28;5086114;28;20032;-85
2024/01/21 04:58:17;;;;;;;8.63;5.50;;;;;;;7.76;77.66;102937.19;5091475;28;20048;-89
2024/01/21 05:00:43;;;;;;;11.00;6.15;;;;;;;7.84;77.38;102950.97;5083543;28;20489;-88
2024/01/21 05:03:09;;;;;;;8.65;5.35;;;;;;;7.71;77.49;102928.94;5085554;28;20024;-87
2024/01/21 05:05:35;;;;;;;8.07;5.05;;;;;;;7.71;78.00;102923.72;5088296;28;20036;-87
2024/01/21 05:08:00;;;;;;;7.40;5.13;;;;;;;7.73;77.79;102930.00;5070211;28;20028;-86
2024/01/21 05:10:26;;;;;;;8.35;5.32;;;;;;;7.83;77.87;102956.91;5085411;28;20040;-87
2024/01/21 05:12:52;;;;;;;8.32;5.40;;;;;;;7.60;78.12;102916.53;5067992;28;20089;-87
2024/01/21 05:15:20;;;;;;;8.40;5.22;;;;;;;7.60;77.88;102919.16;5087878;28;20028;-88
2024/01/21 05:17:45;;;;;;;7.20;4.90;;;;;;;7.98;78.10;102981.91;5087341;28;20016;-87
2024/01/21 05:20:11;;;;;;;8.18;5.55;;;;;;;7.34;77.90;102873.25;5091029;28;20031;-87
2024/01/21 05:22:37;;;;;;;8.30;5.22;;;;;;;7.79;77.82;102963.53;5083853;28;20089;-86
2024/01/21 05:25:03;;;;;;;9.10;5.97;;;;;;;7.94;78.11;102992.75;5085228;28;20020;-86
2024/01/21 05:27:30;;;;;;;7.93;5.18;;;;;;;7.90;78.06;102990.63;5089323;28;20020;-87
2024/01/21 05:29:56;;;;;;;8.80;5.70;;;;;;;7.80;77.57;102977.44;5073282;28;20047;-87
2024/01/21 05:32:21;;;;;;;9.25;5.72;;;;;;;7.92;77.63;102996.88;5091053;28;20424;-86
2024/01/21 05:34:48;;;;;;;10.68;6.07;;;;;;;7.61;77.50;102939.16;5088105;28;20556;-86
2024/01/21 05:37:14;;;;;;;9.18;5.55;;;;;;;7.53;77.57;102941.00;5081649;28;20028;-88
2024/01/21 05:39:39;;;;;;;7.60;5.22;;;;;;;7.73;77.20;102970.72;5073280;28;20032;-86
2024/01/21 05:42:07;;;;;;;8.05;5.10;;;;;;;7.67;77.13;102962.28;5088593;28;20028;-86
2024/01/21 05:44:33;;;;;;;9.20;5.60;;;;;;;7.92;77.25;103010.81;5086563;28;20338;-86
2024/01/21 05:47:00;;;;;;;7.65;5.00;;;;;;;7.90;77.29;103009.72;5069345;28;20036;-86
2024/01/21 05:49:25;;;;;;;;;;;;;;;7.92;77.45;103015.09;5087545;28;20039;-87
2024/01/21 05:51:52;;;;;;;7.72;5.15;;;;;;;7.83;77.19;103015.09;5074860;28;19939;-86
2024/01/21 05:54:18;;;;;;;8.35;5.10;;;;;;;7.49;77.46;102953.53;5090429;28;20524;-86
2024/01/21 05:56:45;;;;;;;7.85;5.47;;;;;;;7.86;77.49;103015.38;5088419;28;20082;-86
2024/01/21 05:59:12;;;;;;;8.95;5.50;;;;;;;7.81;77.60;103019.22;5088224;28;20059;-87
2024/01/21 06:01:39;;;;;;;9.98;5.05;;;;;;;7.47;77.73;102949.84;5091359;28;20024;-87
2024/01/21 06:04:05;;;;;;;7.97;5.38;;;;;;;7.43;77.86;102955.50;5074709;28;20034;-87
2024/01/21 06:06:30;;;;;;;7.68;5.07;;;;;;;7.71;78.04;103011.25;5067356;28;20111;-87
2024/01/21 06:08:56;;;;;;;7.90;5.50;;;;;;;7.81;77.80;103024.41;5091255;28;20497;-86
2024/01/21 06:11:23;;;;;;;6.78;5.03;;;;;;;7.67;77.47;102994.41;5093462;28;20028;-86
2024/01/21 06:13:49;;;;;;;8.52;5.25;;;;;;;7.47;77.74;102971.59;5089476;28;20020;-85
2024/01/21 06:16:17;;;;;;;7.70;5.13;;;;;;;7.42;77.76;102977.06;5087016;28;20028;-85
2024/01/21 06:18:43;;;;;;;7.45;5.10;;;;;;;7.71;77.58;103030.38;5086777;28;21362;-87
2024/01/21 06:21:09;;;;;;;7.60;5.30;;;;;;;7.54;77.41;103004.31;5097811;28;20020;-86
2024/01/21 06:23:35;;;;;;;8.38;5.53;;;;;;;7.37;77.43;102973.09;5088939;28;20139;-86
2024/01/21 06:26:00;;;;;;;7.60;5.35;;;;;;;7.72;77.27;103044.28;5085303;28;20040;-87
2024/01/21 06:28:26;;;;;;;7.40;5.28;;;;;;;7.59;77.50;103015.19;5092592;27;20521;-88
2024/01/21 06:30:53;;;;;;;6.97;5.05;;;;;;;7.60;77.60;103032.63;5077001;28;20410;-86
2024/01/21 06:33:19;;;;;;;7.68;5.28;;;;;;;7.30;77.60;102987.13;5088303;28;20039;-89
2024/01/21 06:35:44;;;;;;;;;;;;;;;7.75;77.48;103057.63;5089085;28;20024;-88
2024/01/21 06:38:10;;;;;;;6.90;4.63;;;;;;;7.51;77.38;103023.13;5081749;28;19920;-88
2024/01/21 06:40:36;;;;;;;7.97;4.97;;;;;;;7.59;77.55;103036.91;5085886;28;20031;-88
2024/01/21 06:43:02;;;;;;;7.28;5.10;;;;;;;7.52;77.71;103024.97;5086360;28;20111;-88
2024/01/21 06:45:28;;;;;;;7.47;4.68;;;;;;;7.33;77.92;102995.25;5088701;28;20036;-89
2024/01/21 06:47:53;;;;;;;6.93;4.88;;;;;;;7.63;77.82;103052.06;5071759;28;20032;-88
2024/01/21 06:50:21;;;;;;;7.63;5.28;;;;;;;7.46;77.95;103032.13;5082006;28;20090;-88
2024/01/21 06:52:46;;;;;;;7.15;4.72;;;;;;;7.42;78.08;103013.47;5086997;28;20106;-87
2024/01/21 06:55:13;;;;;;;6.85;5.00;;;;;;;7.46;77.53;103032.13;5088519;28;20743;-88
2024/01/21 06:57:39;;;;;;;8.02;5.22;;;;;;;7.63;77.98;103072.88;5072364;28;20044;-88
2024/01/21 07:00:06;;;;;;;7.68;4.90;;;;;;;7.53;77.38;103055.41;5087454;28;20028;-88
2024/01/21 07:02:32;;;;;;;7.53;4.95;;;;;;;7.45;77.87;103048.50;5086950;28;20119;-89
2024/01/21 07:04:58;;;;;;;8.05;4.70;;;;;;;7.60;77.75;103067.38;5084620;28;20463;-88
2024/01/21 07:07:23;;;;;;;8.27;5.10;;;;;;;7.32;77.74;103024.59;5070019;28;20485;-90
2024/01/21 07:09:49;;;;;;;7.03;4.47;;;;;;;7.51;77.29;103058.59;5085537;28;20064;-87
2024/01/21 07:12:15;;;;;;;7.35;4.85;;;;;;;7.41;77.53;103053.19;5081210;28;20412;-89
2024/01/21 07:14:41;;;;;;;6.40;4.88;;;;;;;7.10;77.34;103001.56;5070961;28;20888;-87
2024/01/21 07:17:07;;;;;;;6.13;4.22;;;;;;;7.43;77.43;103056.88;5089699;28;20430;-89
2024/01/21 07:19:33;;;;;;;7.38;4.57;;;;;;;7.51;77.41;103076.78;5086602;28;20046;-90
2024/01/21 07:21:59;;;;;;;7.47;4.63;;;;;;;7.57;77.34;103082.63;5085571;28;20028;-88
2024/01/21 07:24:25;;;;;;;7.75;4.57;;;;;;;7.44;77.19;103067.44;5071342;28;20050;-88
2024/01/21 07:26:51;;;;;;;6.45;4.57;;;;;;;7.31;77.22;103041.88;5086205;28;20086;-87
2024/01/21 07:29:16;;;;;;;6.65;4.75;;;;;;;7.30;77.28;103055.63;5072527;28;20047;-88
2024/01/21 07:31:42;;;;;;;8.15;5.13;;;;;;;7.42;77.42;103065.47;5086990;28;20028;-89
2024/01/21 07:34:09;;;;;;;6.97;4.65;;;;;;;7.57;77.28;103097.31;5103838;27;20062;-89
2024/01/21 07:36:35;;;;;;;7.65;4.97;;;;;;;7.54;77.90;103090.13;5087213;28;20401;-90
2024/01/21 07:39:04;;;;;;;5.70;3.95;;;;;;;7.23;77.49;103032.34;5072594;28;20028;-89
2024/01/21 07:41:37;;;;;;;7.25;4.75;;;;;;;7.29;77.72;103056.38;5082660;28;20023;-89
2024/01/21 07:44:02;;;;;;;6.18;4.35;;;;;;;7.37;77.68;103066.69;5087682;28;20028;-89
2024/01/21 07:46:28;;;;;;;6.45;4.40;;;;;;;7.47;77.87;103088.59;5086072;28;20552;-88
2024/01/21 07:48:54;;;;;;;7.80;4.97;;;;;;;7.52;77.68;103092.56;5086802;28;20063;-88
2024/01/21 07:51:20;;;;;;;7.05;4.50;;;;;;;7.09;77.75;103023.13;5080423;28;20028;-87
2024/01/21 07:53:47;;;;;;;6.63;4.45;;;;;;;7.01;77.63;103004.91;5084745;28;20039;-88
2024/01/21 07:56:13;;;;;;;;;;;;;;;7.50;77.71;103088.88;5087760;28;20055;-88
2024/01/21 07:58:39;;;;;;;6.50;4.40;;;;;;;7.43;77.51;103082.88;5102648;27;19915;-88
2024/01/21 08:01:11;;;;;;;7.43;4.53;;;;;;;7.51;77.48;103095.00;5084499;28;20300;-89
2024/01/21 08:03:37;;;;;;;8.02;5.03;;;;;;;7.08;77.74;103016.09;5052028;28;20044;-89
2024/01/21 08:06:04;;;;;;;;;;;;;;;7.49;77.38;103092.25;5087538;28;20032;-89
2024/01/21 08:08:30;;;;;;;6.30;4.68;;;;;;;7.42;77.33;103074.16;5088208;28;19916;-88
2024/01/21 08:11:05;;;;;;;7.72;4.55;;;;;;;7.38;77.41;103085.00;5083707;28;20035;-91
2024/01/21 08:13:31;;;;;;;7.30;4.55;;;;;;;7.11;77.55;103023.28;5085579;28;20067;-94
2024/01/21 08:16:22;;;;;;;6.68;4.28;;;;;;;7.48;77.44;103093.00;5073341;28;20039;-91
2024/01/21 08:18:57;;;;;;;6.05;4.20;;;;;;;7.46;77.51;103102.31;5087759;28;20032;-91
2024/01/21 08:21:25;;;;;;;6.78;4.57;;;;;;;7.19;77.70;103048.38;5088657;28;20032;-92
2024/01/21 08:24:10;;;;;;;7.80;4.70;;;;;;;7.44;77.71;103097.72;5072192;28;20500;-92
2024/01/21 08:26:39;;;;;;;6.65;4.20;;;;;;;7.45;78.06;103099.56;5089028;28;20503;-91
2024/01/21 08:29:20;;;;;;;7.32;4.50;;;;;;;7.24;78.00;103065.41;5072714;28;20036;-93
2024/01/21 08:31:56;;;;;;;7.63;4.75;;;;;;;7.26;78.04;103057.72;5087262;28;20563;-91
2024/01/21 08:34:25;;;;;;;5.65;4.15;;;;;;;7.27;78.16;103063.09;5089826;28;20028;-90
2024/01/21 08:36:51;;;;;;;6.18;4.57;;;;;;;7.31;78.35;103062.66;5073884;28;20501;-92
2024/01/21 08:39:27;;;;;;;6.80;4.55;;;;;;;7.43;78.06;103088.06;5072961;28;20097;-90
2024/01/21 08:41:55;;;;;;;6.40;4.60;;;;;;;7.07;77.79;103024.66;5096044;28;20119;-92
2024/01/21 08:44:20;;;;;;;5.88;4.18;;;;;;;7.07;77.85;103031.50;5089983;28;20028;-92
2024/01/21 08:46:50;;;;;;;6.03;4.38;;;;;;;7.44;77.48;103095.13;5071830;28;20039;-91
2024/01/21 08:49:18;;;;;;;6.15;4.10;;;;;;;7.30;77.59;103062.50;5066558;28;20042;-95
2024/01/21 08:51:44;;;;;;;7.25;4.60;;;;;;;6.92;77.47;102994.44;5082485;28;20032;-93
2024/01/21 08:54:10;;;;;;;5.05;4.20;;;;;;;7.10;77.42;103024.03;5070187;28;20042;-90
2024/01/21 08:56:41;;;;;;;6.43;4.60;;;;;;;6.84;77.48;102978.09;5085188;28;20085;-91
2024/01/21 08:59:16;;;;;;;7.75;4.70;;;;;;;7.25;77.50;103053.31;5089670;28;20047;-91
2024/01/21 09:01:42;;;;;;;6.85;4.25;;;;;;;7.05;77.36;103020.06;5087276;28;20138;-93
2024/01/21 09:04:22;;;;;;;6.03;4.25;;;;;;;7.05;76.79;103022.66;5082695;28;20107;-93
2024/01/21 09:07:03;;;;;;;6.03;4.10;;;;;;;7.37;77.54;103070.19;5080399;28;20056;-92
2024/01/21 09:09:31;;;;;;;6.28;4.35;;;;;;;7.07;77.70;103031.50;5087908;28;20055;-94
2024/01/21 09:11:58;;;;;;;7.75;4.53;;;;;;;7.22;77.54;103051.31;5069598;28;20025;-93
2024/01/21 09:14:24;;;;;;;6.38;4.60;;;;;;;7.06;77.86;103016.69;5068299;28;20092;-89
2024/01/21 09:16:50;;;;;;;6.63;4.45;;;;;;;6.92;77.87;102991.84;5087617;28;20097;-87
2024/01/21 09:19:16;;;;;;;7.40;4.90;;;;;;;7.04;78.13;103007.81;5084798;28;20176;-85
2024/01/21 09:21:41;;;;;;;6.20;4.40;;;;;;;7.32;77.61;103068.78;5068638;28;20811;-87
2024/01/21 09:24:07;;;;;;;6.47;4.40;;;;;;;6.93;77.89;102998.91;5082456;28;20028;-87
2024/01/21 09:26:34;;;;;;;7.15;4.57;;;;;;;7.14;77.84;103037.50;5084596;28;20119;-86
2024/01/21 09:28:59;;;;;;;7.28;4.55;;;;;;;7.17;77.90;103041.19;5069401;28;20039;-90
2024/01/21 09:31:25;;;;;;;6.38;4.72;;;;;;;7.23;77.88;103053.13;5083670;28;20073;-88
2024/01/21 09:33:51;;;;;;;8.13;4.80;;;;;;;7.08;77.67;103030.75;5087730;28;20107;-90
2024/01/21 09:36:17;;;;;;;6.55;4.65;;;;;;;7.06;77.65;103019.28;5071848;28;20485;-89
2024/01/21 09:38:42;;;;;;;5.32;4.22;;;;;;;6.99;77.77;103012.53;5091191;28;20679;-89
2024/01/21 09:41:43;;;;;;;7.13;4.45;;;;;;;7.33;77.56;103062.81;5086600;28;20033;-89
2024/01/21 09:44:28;;;;;;;7.65;4.45;;;;;;;7.14;77.69;103028.81;5051958;28;20084;-90
2024/01/21 09:46:56;;;;;;;7.57;4.60;;;;;;;7.30;77.70;103062.50;5070043;28;20456;-90
2024/01/21 09:49:24;;;;;;;6.43;4.50;;;;;;;7.24;77.67;103048.84;5090351;28;20035;-89
2024/01/21 09:51:51;;;;;;;6.85;4.82;;;;;;;7.27;77.58;103055.31;5086168;28;20032;-90
2024/01/21 09:54:19;;;;;;;6.10;4.53;;;;;;;7.32;77.43;103061.91;5085574;28;20031;-89
2024/01/21 09:56:45;;;;;;;7.07;4.35;;;;;;;7.19;77.30;103039.69;5093388;28;20089;-88
2024/01/21 09:59:20;;;;;;;6.75;4.35;;;;;;;7.17;77.44;103041.19;5089305;28;20032;-95
2024/01/21 10:01:46;;;;;;;6.93;4.43;;;;;;;7.17;77.41;103038.59;5090082;28;20028;-92
2024/01/21 10:04:33;;;;;;;6.40;4.53;;;;;;;7.30;77.91;103063.44;5073835;28;20028;-95
2024/01/21 10:07:01;;;;;;;;;;;;;;;7.30;77.90;103059.88;5093360;28;20488;-96
2024/01/21 10:12:59;;;;;;;6.80;4.60;;;;;;;7.25;78.30;103054.22;5093942;28;19922;-94
2024/01/21 10:15:35;;;;;;;7.00;4.68;;;;;;;7.08;78.33;103022.97;5074925;28;20032;-96
2024/01/21 10:18:00;;;;;;;7.78;4.65;;;;;;;7.17;77.97;103039.50;5073184;28;20061;-95
2024/01/21 10:20:42;;;;;;;8.73;4.43;;;;;;;6.86;77.63;102983.47;5091206;28;20028;-93
2024/01/21 10:23:12;;;;;;;6.68;4.57;;;;;;;7.10;77.92;103024.97;5085250;28;20041;-93
2024/01/21 10:25:43;;;;;;;6.68;4.35;;;;;;;6.93;78.04;102999.81;5074026;28;20508;-94
2024/01/21 10:28:41;;;;;;;6.90;4.82;;;;;;;7.27;77.76;103044.91;5091638;28;20024;-96
2024/01/21 10:31:15;;;;;;;6.93;4.18;;;;;;;7.03;77.67;103012.09;5076527;28;20035;-95
2024/01/21 10:33:45;;;;;;;8.20;4.85;;;;;;;7.14;77.81;103026.22;5074767;28;20020;-94
2024/01/21 10:36:15;;;;;;;7.30;4.40;;;;;;;7.14;77.90;103029.72;5075150;28;20032;-94
2024/01/21 10:38:49;;;;;;;7.63;4.53;;;;;;;7.26;77.82;103045.69;5064602;28;20035;-91
2024/01/21 10:41:35;;;;;;;6.72;4.32;;;;;;;7.27;77.61;103038.78;5074016;28;20027;-94
2024/01/21 10:44:04;;;;;;;7.38;4.00;;;;;;;7.24;77.50;103042.00;5086355;28;20054;-93
2024/01/21 10:46:37;;;;;;;7.20;4.75;;;;;;;6.96;77.50;102995.69;5083098;28;20031;-90
2024/01/21 10:49:17;;;;;;;6.53;4.43;;;;;;;6.80;77.66;102962.94;5091383;28;20486;-89
2024/01/21 10:51:44;;;;;;;6.78;4.25;;;;;;;7.10;77.68;103019.75;5088218;28;20060;-89
2024/01/21 10:54:15;;;;;;;8.40;5.03;;;;;;;7.02;78.03;102997.25;5089941;28;20085;-89
2024/01/21 10:56:47;;;;;;;8.63;4.90;;;;;;;7.06;78.49;103003.69;5088384;28;20032;-89
2024/01/21 10:59:31;;;;;;;7.35;4.25;;;;;;;7.26;78.22;103034.34;5069663;28;20123;-92
2024/01/21 11:02:16;;;;;;;7.70;4.65;;;;;;;7.24;78.10;103035.84;5052714;28;20020;-91
2024/01/21 11:04:51;;;;;;;6.93;4.35;;;;;;;7.18;78.25;103027.47;5067779;28;20039;-91
2024/01/21 11:07:18;;;;;;;7.97;4.38;;;;;;;7.14;77.76;103013.22;5051188;28;20481;-93
2024/01/21 11:09:53;;;;;;;8.77;4.80;;;;;;;6.79;77.98;102958.50;5071044;28;20033;-91
2024/01/21 11:12:29;;;;;;;7.55;4.20;;;;;;;7.11;77.78;103013.81;5052137;28;20037;-92
2024/01/21 11:14:55;;;;;;;9.57;4.65;;;;;;;7.23;77.51;103034.94;5050807;28;20029;-87
2024/01/21 11:17:23;;;;;;;6.90;4.35;;;;;;;6.99;77.50;102988.25;5052026;28;20508;-89
2024/01/21 11:19:55;;;;;;;10.60;4.68;;;;;;;7.24;77.61;103033.25;5066722;28;20024;-88
2024/01/21 11:22:23;;;;;;;7.55;4.40;;;;;;;7.15;77.84;103015.03;5052302;28;20032;-89
2024/01/21 11:24:53;;;;;;;8.10;4.63;;;;;;;6.86;77.75;102967.88;5070178;28;20493;-88
2024/01/21 11:27:22;;;;;;;7.22;4.40;;;;;;;7.23;77.62;103031.44;5069722;28;20024;-88
2024/01/21 11:29:49;;;;;;;8.25;5.15;;;;;;;7.05;77.29;103005.38;5063871;28;20024;-87
2024/01/21 11:32:22;;;;;;;7.22;4.13;;;;;;;6.91;77.46;102972.75;5063801;28;20115;-86
2024/01/21 11:34:49;;;;;;;7.53;5.00;;;;;;;7.02;77.61;102999.84;5048534;28;20403;-88
2024/01/21 11:37:15;;;;;;;8.68;4.47;;;;;;;7.22;77.41;103030.53;5064234;28;20032;-90
2024/01/21 11:39:41;;;;;;;6.93;4.43;;;;;;;7.23;77.66;103029.75;5069293;28;20082;-89